Time;durP1;ratioP1;P1;durP2;ratioP2;P2;SDS_P1;SDS_P2;PMS_P1;PMS_P2;Temp;Humidity;BMP_temperature;BMP_pressure;BME280_temperature;BME280_humidity;BME280_pressure;Samples;Min_cycle;Max_cycle;Signal;HPM_P1;HPM_P2
2023/12/08 00:00:23;;;;;;;73.47;37.40;;;0.30;99.90;-0.80;100780;;;;567354;249;25180;-73
2023/12/08 00:02:51;;;;;;;80.83;39.27;;;0.20;99.90;-0.80;100783;;;;567279;249;25132;-77
2023/12/08 00:05:19;;;;;;;80.87;42.00;;;0.30;99.90;-0.80;100778;;;;566856;249;24055;-78
2023/12/08 00:07:47;;;;;;;71.20;37.10;;;0.30;99.90;-0.80;100783;;;;567062;249;24088;-76
2023/12/08 00:10:15;;;;;;;81.03;36.73;;;0.40;99.90;-0.80;100788;;;;566845;249;24059;-77
2023/12/08 00:12:42;;;;;;;76.47;39.93;;;0.20;99.90;-0.90;100780;;;;567282;249;24091;-76
2023/12/08 00:15:10;;;;;;;81.80;39.50;;;0.20;99.90;-0.90;100777;;;;567372;249;24086;-77
2023/12/08 00:17:38;;;;;;;84.87;41.27;;;0.10;99.90;-0.90;100778;;;;567374;249;24129;-78
2023/12/08 00:20:06;;;;;;;69.20;33.33;;;0.20;99.90;-0.80;100774;;;;567373;249;24074;-77
2023/12/08 00:22:34;;;;;;;80.07;38.20;;;0.20;99.90;-0.90;100777;;;;576595;246;24062;-78
2023/12/08 00:25:03;;;;;;;83.77;37.23;;;0.20;99.90;-0.90;100786;;;;568700;248;24204;-77
2023/12/08 00:27:32;;;;;;;74.40;38.27;;;0.20;99.90;-0.90;100787;;;;568288;248;24098;-76
2023/12/08 00:30:00;;;;;;;66.43;33.33;;;0.20;99.90;-0.80;100785;;;;568077;248;24055;-76
2023/12/08 00:32:28;;;;;;;87.23;37.63;;;0.20;99.90;-0.80;100788;;;;568031;248;24055;-75
2023/12/08 00:34:55;;;;;;;76.13;36.03;;;0.20;99.90;-0.90;100790;;;;567391;248;24235;-77
2023/12/08 00:37:25;;;;;;;77.57;36.77;;;0.20;99.90;-0.90;100774;;;;567604;248;24114;-76
2023/12/08 00:39:52;;;;;;;86.17;37.60;;;0.20;99.90;-0.80;100785;;;;567455;248;24118;-78
2023/12/08 00:42:20;;;;;;;67.77;31.87;;;0.30;99.90;-0.80;100778;;;;567425;249;24144;-77
2023/12/08 00:44:48;;;;;;;87.03;38.43;;;0.40;99.90;-0.80;100776;;;;567513;249;24058;-76
2023/12/08 00:47:17;;;;;;;80.37;35.37;;;0.20;99.90;-0.80;100783;;;;567619;249;24072;-76
2023/12/08 00:49:45;;;;;;;80.07;35.90;;;0.10;99.90;-0.90;100775;;;;567760;249;24112;-76
2023/12/08 00:52:12;;;;;;;82.03;35.73;;;0.10;99.90;-0.90;100786;;;;567626;249;24091;-76
2023/12/08 00:54:40;;;;;;;76.60;36.87;;;0.30;99.90;-0.90;100803;;;;567577;249;24062;-76
2023/12/08 00:57:08;;;;;;;82.80;38.77;;;0.20;99.90;-0.90;100791;;;;567529;249;24077;-76
2023/12/08 00:59:37;;;;;;;79.47;36.23;;;0.20;99.90;-0.90;100793;;;;567288;249;24166;-83
2023/12/08 01:02:05;;;;;;;71.60;35.10;;;0.30;99.90;-0.90;100787;;;;576597;247;24104;-84
2023/12/08 01:04:33;;;;;;;78.97;36.50;;;0.20;99.90;-0.90;100787;;;;567346;249;25111;-78
2023/12/08 01:07:01;;;;;;;81.47;34.10;;;0.40;99.90;-0.90;100790;;;;567083;249;24131;-81
2023/12/08 01:09:29;;;;;;;78.50;35.80;;;0.20;99.90;-0.90;100784;;;;566979;249;24072;-81
2023/12/08 01:11:57;;;;;;;74.70;33.17;;;0.20;99.90;-0.90;100778;;;;567368;249;24055;-79
2023/12/08 01:14:25;;;;;;;81.63;35.33;;;0.20;99.90;-0.90;100777;;;;566915;249;24056;-77
2023/12/08 01:16:53;;;;;;;73.53;33.50;;;0.00;99.90;-0.90;100787;;;;566900;249;24114;-80
2023/12/08 01:19:21;;;;;;;72.90;32.90;;;0.10;99.90;-0.90;100781;;;;566931;249;24091;-75
2023/12/08 01:21:49;;;;;;;80.10;33.60;;;0.20;99.90;-0.90;100794;;;;566984;249;24056;-76
2023/12/08 01:24:17;;;;;;;77.60;34.77;;;0.20;99.90;-0.90;100787;;;;566910;249;24073;-76
2023/12/08 01:26:45;;;;;;;63.23;29.60;;;0.10;99.90;-0.90;100790;;;;566938;249;24099;-78
2023/12/08 01:29:13;;;;;;;71.57;31.80;;;0.10;99.90;-0.90;100791;;;;565077;249;25461;-77
2023/12/08 01:31:41;;;;;;;79.80;35.90;;;0.10;99.90;-0.90;100788;;;;567106;249;24068;-78
2023/12/08 01:34:09;;;;;;;78.83;33.67;;;0.10;99.90;-0.90;100784;;;;567509;248;24064;-79
2023/12/08 01:36:36;;;;;;;75.33;32.40;;;0.30;99.90;-0.90;100783;;;;568089;248;24072;-79
2023/12/08 01:39:05;;;;;;;71.57;32.87;;;0.30;99.90;-0.90;100785;;;;567778;248;24135;-81
2023/12/08 01:41:33;;;;;;;69.23;31.63;;;0.20;99.90;-0.90;100787;;;;567812;248;24128;-77
2023/12/08 01:44:01;;;;;;;73.93;34.37;;;0.20;99.90;-0.90;100795;;;;567797;248;24139;-78
2023/12/08 01:46:29;;;;;;;57.35;24.02;;;0.20;99.90;-0.90;100782;;;;563125;248;35158;-78
2023/12/08 01:48:58;;;;;;;28.90;10.83;;;0.20;99.90;-0.90;100785;;;;565796;248;24071;-78
2023/12/08 01:51:26;;;;;;;47.10;19.23;;;0.20;99.90;-0.90;100785;;;;571488;248;24064;-82
2023/12/08 01:53:55;;;;;;;40.20;17.07;;;0.20;99.90;-0.90;100786;;;;565634;249;24070;-76
2023/12/08 01:56:26;;;;;;;70.17;30.27;;;0.20;99.90;-0.90;100788;;;;567516;249;24130;-75
2023/12/08 01:58:52;;;;;;;82.90;34.70;;;0.20;99.90;-0.90;100788;;;;567498;249;24088;-77
2023/12/08 02:01:19;;;;;;;75.70;35.23;;;0.30;99.90;-0.90;100788;;;;567677;249;24032;-75
2023/12/08 02:03:51;;;;;;;87.30;36.43;;;0.20;99.90;-0.90;100780;;;;567775;249;24047;-78
2023/12/08 02:06:15;;;;;;;84.50;35.40;;;0.10;99.90;-0.90;100781;;;;567495;249;24082;-77
2023/12/08 02:08:43;;;;;;;72.63;30.13;;;0.30;99.90;-0.90;100768;;;;567239;249;24060;-78
2023/12/08 02:11:11;;;;;;;77.13;35.03;;;0.20;99.90;-0.90;100774;;;;565811;249;24089;-80
2023/12/08 02:13:39;;;;;;;72.43;33.03;;;0.20;99.90;-0.90;100789;;;;567022;249;24056;-82
2023/12/08 02:16:07;;;;;;;95.20;44.83;;;0.20;99.90;-0.90;100796;;;;562406;249;46145;-77
2023/12/08 02:18:35;;;;;;;24.27;13.17;;;0.20;99.90;-0.90;100794;;;;564947;249;24101;-76
2023/12/08 02:21:03;;;;;;;46.53;18.43;;;0.20;99.90;-0.90;100788;;;;567155;249;24071;-84
2023/12/08 02:23:31;;;;;;;36.10;14.97;;;0.20;99.90;-0.90;100792;;;;567510;249;24117;-77
2023/12/08 02:25:59;;;;;;;42.23;16.80;;;0.20;99.90;-0.90;100783;;;;566932;249;24071;-76
2023/12/08 02:28:27;;;;;;;51.67;21.60;;;0.30;99.90;-0.90;100779;;;;567145;249;24043;-77
2023/12/08 02:30:56;;;;;;;71.73;29.67;;;0.20;99.90;-0.90;100781;;;;566979;249;24107;-76
2023/12/08 02:33:27;;;;;;;78.87;31.13;;;0.20;99.90;-0.90;100789;;;;565525;249;24120;-77
2023/12/08 02:35:56;;;;;;;73.20;33.03;;;0.30;99.90;-0.80;100782;;;;565212;249;24099;-77
2023/12/08 02:38:24;;;;;;;62.67;24.95;;;0.20;99.90;-0.80;100781;;;;568359;248;35207;-77
2023/12/08 02:40:51;;;;;;;42.40;16.73;;;0.30;99.90;-0.80;100784;;;;565443;249;24060;-76
2023/12/08 02:43:22;;;;;;;48.47;14.70;;;0.20;99.90;-0.80;100770;;;;567484;249;24110;-76
2023/12/08 02:45:47;;;;;;;11.67;8.10;;;0.50;99.90;-0.80;100779;;;;567735;248;24084;-77
2023/12/08 02:48:18;;;;;;;34.17;15.83;;;0.30;99.90;-0.80;100779;;;;568680;248;24089;-77
2023/12/08 02:50:43;;;;;;;23.93;12.03;;;0.30;99.90;-0.80;100789;;;;568074;248;24072;-76
2023/12/08 02:53:11;;;;;;;52.62;22.13;;;0.30;99.90;-0.80;100790;;;;562025;248;35146;-78
2023/12/08 02:55:39;;;;;;;40.50;13.97;;;0.30;99.90;-0.80;100784;;;;568140;248;24047;-75
2023/12/08 02:58:07;;;;;;;30.63;14.93;;;0.30;99.90;-0.80;100792;;;;568564;248;24064;-75
2023/12/08 03:00:35;;;;;;;24.83;12.67;;;0.40;99.90;-0.80;100790;;;;568381;248;24050;-76
2023/12/08 03:03:03;;;;;;;32.33;12.67;;;0.30;99.90;-0.80;100798;;;;568346;248;24060;-77
2023/12/08 03:05:31;;;;;;;28.87;12.90;;;0.30;99.90;-0.80;100797;;;;568170;249;24099;-76
2023/12/08 03:07:59;;;;;;;34.23;14.77;;;0.30;99.90;-0.80;100789;;;;568030;249;24047;-75
2023/12/08 03:10:27;;;;;;;40.93;15.87;;;0.20;99.90;-0.80;100786;;;;567326;249;24115;-75
2023/12/08 03:12:56;;;;;;;27.90;12.27;;;0.30;99.90;-0.70;100797;;;;567384;249;24077;-76
2023/12/08 03:15:24;;;;;;;54.93;22.10;;;0.30;99.90;-0.80;100803;;;;567938;249;24085;-76
2023/12/08 03:17:52;;;;;;;71.67;26.80;;;0.50;99.90;-0.80;100797;;;;568222;249;24111;-76
2023/12/08 03:20:21;;;;;;;56.03;26.27;;;0.30;99.90;-0.80;100802;;;;568343;249;24102;-76
2023/12/08 03:22:49;;;;;;;63.13;28.90;;;0.40;99.90;-0.70;100797;;;;567784;249;24055;-77
2023/12/08 03:25:18;;;;;;;70.47;29.80;;;0.40;99.90;-0.70;100802;;;;567591;249;24127;-79
2023/12/08 03:27:47;;;;;;;72.50;29.57;;;0.40;99.90;-0.70;100795;;;;567442;249;24105;-78
2023/12/08 03:30:15;;;;;;;75.83;30.63;;;0.40;99.90;-0.70;100792;;;;567463;249;24109;-79
2023/12/08 03:32:43;;;;;;;71.13;31.83;;;0.30;99.90;-0.70;100797;;;;567414;249;25083;-77
2023/12/08 03:35:11;;;;;;;71.63;31.10;;;0.40;99.90;-0.70;100797;;;;567330;249;24071;-77
2023/12/08 03:37:39;;;;;;;82.60;34.27;;;0.20;99.90;-0.70;100798;;;;567315;249;25179;-81
2023/12/08 03:40:07;;;;;;;76.80;32.87;;;0.40;99.90;-0.70;100795;;;;567094;249;24084;-75
2023/12/08 03:42:36;;;;;;;88.33;35.67;;;0.30;99.90;-0.80;100779;;;;567016;249;24071;-80
2023/12/08 03:45:06;;;;;;;78.03;35.43;;;0.40;99.90;-0.80;100784;;;;567393;249;24058;-78
2023/12/08 03:47:31;;;;;;;93.53;36.97;;;0.30;99.90;-0.80;100776;;;;565522;249;24146;-78
2023/12/08 03:49:59;;;;;;;92.43;34.73;;;0.40;99.90;-0.80;100770;;;;567470;249;25230;-77
2023/12/08 03:52:27;;;;;;;101.17;38.90;;;0.30;99.90;-0.80;100774;;;;567361;249;24134;-75
2023/12/08 03:54:55;;;;;;;103.40;40.60;;;0.30;99.90;-0.80;100778;;;;567389;249;24114;-75
2023/12/08 03:57:23;;;;;;;98.13;40.60;;;0.30;99.90;-0.90;100774;;;;568014;248;24056;-79
2023/12/08 03:59:51;;;;;;;93.00;35.90;;;0.10;99.90;-0.90;100770;;;;568612;248;24106;-80
2023/12/08 04:02:18;;;;;;;95.73;37.83;;;0.10;99.90;-0.90;100769;;;;568204;248;24064;-78
2023/12/08 04:04:46;;;;;;;102.27;38.00;;;0.10;99.90;-1.00;100759;;;;568029;248;24100;-78
2023/12/08 04:07:14;;;;;;;108.53;42.40;;;0.20;99.90;-1.00;100762;;;;571583;248;24043;-77
2023/12/08 04:09:43;;;;;;;92.93;37.63;;;-0.10;99.90;-1.00;100760;;;;567520;248;24138;-76
2023/12/08 04:12:10;;;;;;;87.10;31.40;;;0.10;99.90;-1.00;100749;;;;562695;248;46060;-76
2023/12/08 04:14:38;;;;;;;43.90;18.37;;;0.10;99.90;-1.00;100749;;;;567666;248;24098;-76
2023/12/08 04:17:06;;;;;;;32.80;14.67;;;0.00;99.90;-1.00;100745;;;;567227;249;24047;-78
2023/12/08 04:19:34;;;;;;;44.40;16.70;;;0.20;99.90;-1.00;100744;;;;567193;249;24089;-77
2023/12/08 04:22:02;;;;;;;49.30;15.67;;;0.40;99.90;-1.00;100742;;;;567327;249;24057;-76
2023/12/08 04:24:30;;;;;;;51.93;17.50;;;0.10;99.90;-1.00;100742;;;;566119;248;24070;-78
2023/12/08 04:26:58;;;;;;;61.60;25.07;;;0.20;99.90;-0.90;100742;;;;567472;249;24084;-77
2023/12/08 04:29:26;;;;;;;89.03;35.63;;;0.10;99.90;-1.00;100738;;;;567373;249;24051;-77
2023/12/08 04:31:53;;;;;;;94.83;37.97;;;0.00;99.90;-1.00;100747;;;;567574;249;24095;-77
2023/12/08 04:34:21;;;;;;;97.07;39.10;;;0.00;99.90;-1.00;100745;;;;567156;249;24103;-78
2023/12/08 04:36:49;;;;;;;88.70;36.57;;;-0.10;99.90;-1.10;100749;;;;567422;249;24077;-78
2023/12/08 04:39:18;;;;;;;101.97;40.17;;;0.30;99.90;-1.10;100739;;;;567429;249;24148;-77
2023/12/08 04:41:45;;;;;;;95.00;41.77;;;-0.10;99.90;-1.10;100741;;;;566880;249;24111;-78
2023/12/08 04:44:13;;;;;;;101.67;38.47;;;-0.20;99.90;-1.20;100738;;;;567167;249;24043;-80
2023/12/08 04:46:41;;;;;;;97.70;38.67;;;-0.20;99.90;-1.20;100736;;;;567525;249;24106;-78
2023/12/08 04:49:09;;;;;;;98.47;40.63;;;0.00;99.90;-1.20;100735;;;;567421;249;24071;-83
2023/12/08 04:51:39;;;;;;;99.63;40.90;;;-0.30;99.90;-1.30;100745;;;;567386;249;24137;-77
2023/12/08 04:54:06;;;;;;;102.90;38.17;;;-0.10;99.90;-1.30;100742;;;;567111;249;24069;-79
2023/12/08 04:56:37;;;;;;;94.90;38.90;;;-0.30;99.90;-1.30;100739;;;;567368;249;24109;-81
2023/12/08 04:59:05;;;;;;;97.57;39.80;;;-0.30;99.90;-1.40;100758;;;;567347;249;24055;-80
2023/12/08 05:01:33;;;;;;;94.40;40.33;;;-0.30;99.90;-1.30;100753;;;;567443;249;24104;-83
2023/12/08 05:04:02;;;;;;;97.43;39.57;;;-0.30;99.90;-1.40;100752;;;;567481;249;24063;-78
2023/12/08 05:06:30;;;;;;;92.50;39.77;;;-0.30;99.90;-1.40;100743;;;;563245;249;24049;-80
2023/12/08 05:08:59;;;;;;;95.20;40.70;;;-0.30;99.90;-1.40;100747;;;;567954;248;25163;-80
2023/12/08 05:11:26;;;;;;;90.57;38.50;;;-0.30;99.90;-1.50;100746;;;;568218;248;24093;-78
2023/12/08 05:13:54;;;;;;;96.27;39.83;;;-0.50;99.90;-1.50;100745;;;;568549;248;24044;-78
2023/12/08 05:16:23;;;;;;;88.37;37.63;;;-0.40;99.90;-1.50;100743;;;;568215;248;24074;-78
2023/12/08 05:18:52;;;;;;;93.43;40.27;;;-0.50;99.90;-1.60;100736;;;;578082;246;24046;-78
2023/12/08 05:21:20;;;;;;;89.77;39.00;;;-0.50;99.90;-1.60;100738;;;;567789;248;24130;-76
2023/12/08 05:23:49;;;;;;;85.57;40.20;;;-0.50;99.90;-1.60;100745;;;;567586;248;25224;-76
2023/12/08 05:26:18;;;;;;;88.47;40.90;;;-0.50;99.90;-1.60;100745;;;;567849;248;24088;-76
2023/12/08 05:28:47;;;;;;;81.53;38.60;;;-0.50;99.90;-1.60;100748;;;;567397;249;24054;-76
2023/12/08 05:31:15;;;;;;;77.00;31.63;;;-0.50;99.90;-1.60;100746;;;;567741;249;24098;-77
2023/12/08 05:33:43;;;;;;;89.37;39.50;;;-0.60;99.90;-1.60;100749;;;;567419;249;24070;-78
2023/12/08 05:36:11;;;;;;;93.77;38.80;;;2.80;99.90;-1.60;100746;;;;567447;249;24104;-78
2023/12/08 05:38:43;;;;;;;82.27;37.73;;;-0.50;99.90;-1.60;100741;;;;567420;249;24095;-77
2023/12/08 05:41:07;;;;;;;92.50;40.63;;;-0.20;99.90;-1.70;100740;;;;566709;249;24135;-77
2023/12/08 05:43:35;;;;;;;89.20;39.97;;;-0.60;99.90;-1.60;100740;;;;567693;249;25079;-76
2023/12/08 05:46:03;;;;;;;80.70;39.17;;;-0.60;99.90;-1.60;100744;;;;567410;249;24164;-77
2023/12/08 05:48:31;;;;;;;79.80;38.60;;;-0.50;99.90;-1.60;100742;;;;566979;249;24109;-79
2023/12/08 05:50:59;;;;;;;81.23;35.50;;;-0.60;99.90;-1.60;100740;;;;567023;249;24097;-80
2023/12/08 05:53:27;;;;;;;69.70;34.77;;;-0.60;99.90;-1.60;100744;;;;566778;249;24071;-77
2023/12/08 05:55:54;;;;;;;79.90;37.27;;;-0.50;99.90;-1.60;100736;;;;567005;249;24085;-78
2023/12/08 05:58:24;;;;;;;82.03;35.97;;;-0.50;99.90;-1.60;100737;;;;567036;249;24044;-78
2023/12/08 06:00:50;;;;;;;75.63;35.40;;;-0.70;99.90;-1.60;100738;;;;567006;249;24067;-78
2023/12/08 06:03:18;;;;;;;77.83;37.00;;;-0.60;99.90;-1.70;100742;;;;576971;246;24105;-78
2023/12/08 06:05:46;;;;;;;81.70;35.20;;;-0.60;99.90;-1.70;100742;;;;566905;249;24129;-78
2023/12/08 06:08:14;;;;;;;74.73;35.60;;;-0.60;99.90;-1.70;100739;;;;567217;245;24111;-79
2023/12/08 06:10:42;;;;;;;74.73;35.87;;;-0.70;99.90;-1.70;100751;;;;567229;249;24063;-82
2023/12/08 06:13:13;;;;;;;89.50;40.57;;;-0.70;99.90;-1.80;100750;;;;567318;249;24177;-82
2023/12/08 06:15:39;;;;;;;82.13;40.10;;;-0.70;99.90;-1.80;100746;;;;566501;249;24049;-79
2023/12/08 06:18:06;;;;;;;79.90;37.97;;;-0.70;99.90;-1.80;100751;;;;567589;249;24132;-80
2023/12/08 06:20:34;;;;;;;83.60;37.73;;;-0.60;99.90;-1.80;100750;;;;567809;248;24061;-84
2023/12/08 06:23:02;;;;;;;93.82;48.38;;;-0.60;99.90;-1.80;100746;;;;563356;248;35110;-75
2023/12/08 06:25:30;;;;;;;43.50;17.67;;;-0.80;99.90;-1.80;100749;;;;568125;248;24115;-76
2023/12/08 06:27:58;;;;;;;70.77;31.33;;;-0.40;99.90;-1.70;100743;;;;567935;248;24051;-76
2023/12/08 06:30:26;;;;;;;87.07;36.57;;;-0.70;99.90;-1.80;100738;;;;567709;248;24110;-81
2023/12/08 06:32:54;;;;;;;79.27;38.77;;;-0.80;99.90;-1.80;100745;;;;567863;248;24225;-85
2023/12/08 06:35:22;;;;;;;81.47;38.43;;;-0.70;99.90;-1.80;100739;;;;567482;248;25128;-76
2023/12/08 06:37:50;;;;;;;85.53;37.33;;;-0.70;99.90;-1.80;100741;;;;567611;248;24096;-76
2023/12/08 06:40:18;;;;;;;75.22;35.90;;;-0.60;99.90;-1.80;100747;;;;562410;249;35216;-78
2023/12/08 06:42:46;;;;;;;30.90;13.73;;;-0.70;99.90;-1.80;100745;;;;567473;249;24097;-80
2023/12/08 06:45:14;;;;;;;57.73;26.13;;;-0.70;99.90;-1.80;100743;;;;567340;249;24043;-79
2023/12/08 06:47:42;;;;;;;69.13;35.47;;;-0.80;99.90;-1.80;100744;;;;567775;249;24077;-80
2023/12/08 06:50:10;;;;;;;69.27;33.90;;;-0.80;99.90;-1.80;100755;;;;567386;249;24087;-77
2023/12/08 06:52:38;;;;;;;59.47;30.67;;;-0.70;99.90;-1.90;100747;;;;567213;249;24222;-79
2023/12/08 06:55:09;;;;;;;75.57;34.43;;;-0.80;99.90;-1.90;100757;;;;567414;249;25461;-77
2023/12/08 06:57:34;;;;;;;76.67;35.33;;;-0.80;99.90;-1.90;100777;;;;566981;249;24100;-76
2023/12/08 07:00:07;;;;;;;78.20;35.97;;;-0.80;99.90;-1.90;100778;;;;567181;249;24051;-77
2023/12/08 07:02:31;;;;;;;74.63;33.67;;;-0.80;99.90;-1.90;100772;;;;566515;249;24118;-77
2023/12/08 07:05:03;;;;;;;71.63;35.47;;;-0.60;99.90;-1.90;100763;;;;566915;249;24118;-76
2023/12/08 07:07:27;;;;;;;75.13;36.43;;;-0.90;99.90;-1.90;100767;;;;566622;249;24071;-77
2023/12/08 07:09:55;;;;;;;71.97;35.47;;;-0.80;99.90;-1.90;100767;;;;566954;249;24122;-76
2023/12/08 07:12:23;;;;;;;69.77;33.17;;;-0.90;99.90;-1.90;100769;;;;567470;246;24094;-77
2023/12/08 07:14:52;;;;;;;75.00;34.53;;;-0.80;99.90;-1.90;100771;;;;566184;249;24098;-77
2023/12/08 07:17:22;;;;;;;89.20;36.87;;;-0.70;99.90;-1.90;100759;;;;565331;250;24086;-79
2023/12/08 07:19:47;;;;;;;77.33;36.77;;;-0.80;99.90;-1.90;100752;;;;556994;253;24093;-76
2023/12/08 07:22:15;;;;;;;67.33;35.30;;;-0.90;99.90;-1.90;100750;;;;567372;249;25089;-77
2023/12/08 07:24:43;;;;;;;82.03;37.20;;;-0.80;99.90;-1.90;100738;;;;567412;249;24070;-76
2023/12/08 07:27:15;;;;;;;80.03;36.87;;;-0.60;99.90;-1.90;100741;;;;567423;249;25146;-78
2023/12/08 07:29:39;;;;;;;75.73;36.60;;;-0.70;99.90;-1.90;100739;;;;566852;249;24068;-79
2023/12/08 07:32:07;;;;;;;72.37;36.60;;;-0.90;99.90;-1.90;100744;;;;567952;248;24107;-78
2023/12/08 07:34:36;;;;;;;75.50;35.33;;;-0.80;99.90;-1.90;100738;;;;568548;248;24057;-76
2023/12/08 07:37:04;;;;;;;70.30;34.17;;;-0.80;99.90;-1.90;100735;;;;567503;248;24062;-78
2023/12/08 07:39:33;;;;;;;74.43;36.37;;;-0.80;99.90;-1.90;100734;;;;568362;248;24055;-78
2023/12/08 07:42:02;;;;;;;76.53;36.23;;;-0.80;99.90;-1.80;100741;;;;563893;248;24126;-77
2023/12/08 07:44:29;;;;;;;69.37;33.43;;;-0.80;99.90;-1.80;100733;;;;567883;248;24071;-76
2023/12/08 07:46:57;;;;;;;79.77;36.10;;;-0.70;99.90;-1.90;100733;;;;577732;246;24090;-77
2023/12/08 07:49:25;;;;;;;73.57;36.07;;;-0.90;99.90;-1.90;100734;;;;567477;248;24088;-77
2023/12/08 07:51:53;;;;;;;76.63;36.43;;;-0.80;99.90;-1.90;100727;;;;567614;249;24130;-81
2023/12/08 07:54:21;;;;;;;70.20;35.30;;;-0.80;99.90;-1.90;100738;;;;567803;249;24085;-76
2023/12/08 07:56:49;;;;;;;73.13;38.33;;;-0.70;99.90;-1.90;100742;;;;567773;249;24068;-77
2023/12/08 07:59:17;;;;;;;60.07;34.83;;;-0.60;99.90;-1.90;100743;;;;568346;249;24093;-80
2023/12/08 08:01:45;;;;;;;66.20;33.27;;;-0.70;99.90;-1.90;100742;;;;568087;249;24068;-77
2023/12/08 08:04:13;;;;;;;63.67;29.07;;;-0.70;99.90;-1.90;100751;;;;567851;249;24129;-76
2023/12/08 08:06:41;;;;;;;76.72;42.55;;;-0.90;99.90;-1.90;100752;;;;562771;249;35119;-80
2023/12/08 08:09:09;;;;;;;24.77;11.40;;;-0.80;99.90;-1.90;100744;;;;567251;249;24069;-78
2023/12/08 08:11:37;;;;;;;61.40;31.53;;;-0.80;99.90;-1.90;100749;;;;567400;249;24054;-76
2023/12/08 08:14:06;;;;;;;72.07;33.63;;;-0.70;99.90;-1.80;100746;;;;567471;246;25116;-77
2023/12/08 08:16:34;;;;;;;68.43;35.77;;;-0.70;99.90;-1.80;100739;;;;567411;249;24086;-77
2023/12/08 08:19:03;;;;;;;69.13;31.10;;;-0.70;99.90;-1.80;100739;;;;566998;249;24124;-76
2023/12/08 08:21:32;;;;;;;76.13;35.13;;;-0.80;99.90;-1.90;100736;;;;566859;249;24122;-77
2023/12/08 08:24:00;;;;;;;67.13;34.70;;;-0.80;99.90;-1.90;100749;;;;567345;249;25129;-78
2023/12/08 08:26:29;;;;;;;68.30;34.37;;;-0.70;99.90;-1.90;100749;;;;577439;246;24062;-78
2023/12/08 08:28:58;;;;;;;71.20;35.83;;;-0.70;99.90;-1.80;100749;;;;567395;246;24059;-77
2023/12/08 08:31:32;;;;;;;65.90;34.70;;;-0.70;99.90;-1.80;100755;;;;567207;249;24086;-80
2023/12/08 08:34:00;;;;;;;69.33;33.83;;;-0.70;99.90;-1.80;100750;;;;567147;249;25113;-80
2023/12/08 08:36:29;;;;;;;70.37;37.13;;;-0.70;99.90;-1.80;100761;;;;567386;249;24145;-80
2023/12/08 08:39:03;;;;;;;71.57;35.73;;;-0.70;99.90;-1.80;100762;;;;567094;249;24163;-80
2023/12/08 08:41:43;;;;;;;;;;;;;;;;;;;;;
2023/12/08 08:44:21;;;;;;;;;;;;;;;;;;;;;
2023/12/08 08:46:51;;;;;;;74.47;35.47;;;-0.80;99.90;-1.80;100766;;;;563612;248;24131;-81
2023/12/08 08:49:21;;;;;;;81.63;35.93;;;-0.70;99.90;-1.80;100766;;;;567252;248;24077;-82
2023/12/08 08:52:19;;;;;;;73.53;32.03;;;-0.70;99.90;-1.80;100757;;;;577658;246;24071;-80
2023/12/08 08:54:36;;;;;;;75.67;34.63;;;-0.80;99.90;-1.80;100755;;;;574260;248;24119;-78
2023/12/08 08:57:21;;;;;;;77.07;34.33;;;-0.70;99.90;-1.80;100757;;;;567360;248;24122;-81
2023/12/08 08:59:51;;;;;;;76.63;35.70;;;-0.80;99.90;-1.90;100749;;;;567454;248;24079;-77
2023/12/08 09:02:24;;;;;;;79.03;33.40;;;-0.70;99.90;-1.90;100733;;;;567012;249;24123;-83
2023/12/08 09:04:48;;;;;;;67.83;32.30;;;-0.80;99.90;-1.90;100735;;;;566020;249;24152;-77
2023/12/08 09:07:17;;;;;;;69.77;32.73;;;-0.80;99.90;-1.90;100726;;;;567611;249;24116;-76
2023/12/08 09:09:45;;;;;;;75.70;33.83;;;-0.80;99.90;-1.80;100718;;;;567396;249;24128;-79
2023/12/08 09:12:13;;;;;;;65.07;31.50;;;-0.70;99.90;-1.80;100716;;;;567225;249;24069;-75
2023/12/08 09:14:43;;;;;;;63.97;31.23;;;-0.70;99.90;-1.90;100702;;;;566669;249;24109;-76
2023/12/08 09:17:11;;;;;;;69.47;33.87;;;-0.80;99.90;-2.00;100699;;;;567297;249;24062;-77
2023/12/08 09:19:39;;;;;;;61.83;31.90;;;-0.80;99.90;-2.00;100693;;;;567047;249;24064;-77
2023/12/08 09:22:08;;;;;;;69.73;33.53;;;-0.80;99.90;-2.00;100696;;;;567385;249;24130;-79
2023/12/08 09:24:37;;;;;;;67.80;32.90;;;-0.80;99.90;-2.00;100701;;;;566213;249;24070;-77
2023/12/08 09:27:05;;;;;;;75.17;32.80;;;-0.80;99.90;-2.00;100699;;;;567103;249;24073;-78
2023/12/08 09:29:33;;;;;;;79.10;37.73;;;-0.90;99.90;-2.00;100703;;;;577044;246;24131;-76
2023/12/08 09:32:02;;;;;;;59.70;29.70;;;-0.80;99.90;-1.90;100696;;;;566933;249;24119;-76
2023/12/08 09:34:30;;;;;;;84.17;38.90;;;-0.80;99.90;-1.90;100704;;;;567116;249;24045;-80
2023/12/08 09:36:59;;;;;;;85.60;40.53;;;-0.60;99.90;-1.90;100693;;;;566900;249;24056;-78
2023/12/08 09:39:27;;;;;;;82.77;38.50;;;-0.80;99.90;-1.90;100699;;;;567031;249;24058;-76
2023/12/08 09:41:55;;;;;;;69.63;37.60;;;-0.80;99.90;-1.90;100702;;;;566876;249;24092;-78
2023/12/08 09:44:22;;;;;;;80.13;38.63;;;-0.80;99.90;-1.90;100701;;;;566617;249;24055;-77
2023/12/08 09:46:54;;;;;;;78.17;34.20;;;-0.50;99.90;-1.90;100700;;;;567050;249;24099;-79
2023/12/08 09:49:30;;;;;;;75.27;34.57;;;-0.70;99.90;-1.80;100693;;;;566732;249;24200;-82
2023/12/08 09:51:58;;;;;;;68.03;32.53;;;-0.70;99.90;-1.80;100688;;;;561586;251;24140;-76
2023/12/08 09:54:29;;;;;;;70.87;31.87;;;-0.70;99.90;-1.70;100698;;;;567247;249;24143;-80
2023/12/08 09:56:54;;;;;;;66.10;32.83;;;-0.50;99.90;-1.80;100688;;;;558591;253;24132;-79
2023/12/08 09:59:25;;;;;;;71.43;34.77;;;-0.80;99.90;-1.80;100693;;;;571695;248;24068;-80
2023/12/08 10:01:54;;;;;;;69.60;33.53;;;-0.60;99.90;-1.70;100691;;;;557719;253;24161;-77
2023/12/08 10:04:25;;;;;;;69.50;32.97;;;-0.60;99.90;-1.70;100703;;;;567612;248;24137;-79
2023/12/08 10:06:54;;;;;;;60.77;30.67;;;-0.60;99.90;-1.70;100706;;;;567128;248;24116;-78
2023/12/08 10:09:19;;;;;;;71.83;31.90;;;-0.60;99.90;-1.70;100709;;;;567310;248;24105;-76
2023/12/08 10:11:46;;;;;;;68.67;31.73;;;-0.60;99.90;-1.70;100704;;;;567353;248;24124;-77
2023/12/08 10:14:21;;;;;;;64.83;28.20;;;-0.70;99.90;-1.70;100705;;;;567390;249;24162;-80
2023/12/08 10:16:51;;;;;;;63.97;31.30;;;-0.70;99.90;-1.70;100704;;;;567171;249;25122;-80
2023/12/08 10:19:16;;;;;;;66.77;32.60;;;-0.60;99.90;-1.70;100696;;;;567164;249;24063;-78
2023/12/08 10:21:44;;;;;;;68.57;33.53;;;-0.50;99.90;-1.70;100702;;;;566891;249;24095;-79
2023/12/08 10:24:12;;;;;;;65.57;31.47;;;-0.60;99.90;-1.70;100704;;;;567752;249;24112;-77
2023/12/08 10:26:40;;;;;;;66.40;32.37;;;-0.60;99.90;-1.70;100703;;;;567638;249;24058;-78
2023/12/08 10:29:08;;;;;;;74.30;34.00;;;-0.60;99.90;-1.60;100705;;;;567753;249;24068;-77
2023/12/08 10:31:36;;;;;;;58.17;28.97;;;-0.50;99.90;-1.60;100718;;;;567215;249;24156;-77
2023/12/08 10:34:04;;;;;;;72.15;38.80;;;-0.50;99.90;-1.60;100731;;;;562391;249;35138;-80
2023/12/08 10:36:32;;;;;;;14.17;9.23;;;-0.40;99.90;-1.60;100722;;;;567276;249;24153;-80
2023/12/08 10:39:00;;;;;;;61.30;20.67;;;-0.60;99.90;-1.60;100710;;;;567513;249;25143;-81
2023/12/08 10:41:28;;;;;;;61.80;28.67;;;-0.40;99.90;-1.60;100701;;;;577496;246;24068;-80
2023/12/08 10:43:57;;;;;;;67.17;32.10;;;-0.40;99.90;-1.60;100700;;;;567745;249;24075;-78
2023/12/08 10:46:26;;;;;;;71.13;31.97;;;-0.40;99.90;-1.60;100701;;;;567732;249;24104;-79
2023/12/08 10:48:54;;;;;;;61.80;32.33;;;-0.40;99.90;-1.60;100704;;;;567619;249;24104;-78
2023/12/08 10:51:23;;;;;;;58.87;29.50;;;-0.40;99.90;-1.50;100697;;;;567482;249;25205;-78
2023/12/08 10:53:55;;;;;;;57.77;31.17;;;-0.50;99.90;-1.60;100701;;;;567346;249;24066;-79
2023/12/08 10:56:20;;;;;;;68.47;31.97;;;-0.50;99.90;-1.60;100695;;;;567311;249;25153;-77
2023/12/08 10:58:52;;;;;;;55.20;29.93;;;-0.50;99.90;-1.70;100700;;;;567499;246;24120;-77
2023/12/08 11:01:20;;;;;;;56.53;30.37;;;-0.50;99.90;-1.60;100690;;;;566671;249;24126;-78
2023/12/08 11:03:48;;;;;;;60.90;29.10;;;-0.50;99.90;-1.60;100690;;;;567357;249;24094;-77